Latest Coastal Weather Observations for Coles Point

IDS60701

Issued at 9:31 pm CST Friday 28 April 2017 (issued every 10 minutes, with the page automatically refreshed every 10 minutes)

About coastal observations | Map of coastal stations | Coastal observations for SA | Marine services | Other Formats
Station Details ID: 018191 Name: COLES POINT Lat: -34.37 Lon: 135.37 Height: 28.0 m
Data from the previous 72 hours. | See also: Recent months at Coles Point
Date/Time
CST
Temp
°C
Wind Pressure Rain since
9am
mm
Weather Cloud Vis
km
Sea
Height
m
Swell
Dir  Spd
kts
Gust
kts
hPa Trend Height
m
Period
s
Dir
28/09:30pm 11.3 E 4 5 1027.8 - 0.2 - - - - - - -
28/09:00pm 11.8 ENE 4 5 1027.8 - 0.2 - - - - - - -
28/08:30pm 12.2 NE 3 3 1027.9 - 0.2 - - - - - - -
28/08:00pm 12.6 ENE 4 4 1027.7 - 0.2 - - - - - - -
28/07:30pm 13.6 ESE 3 4 1027.6 - 0.2 - - - - - - -
28/07:00pm 14.3 SE 2 3 1027.6 - 0.2 - - - - - - -
28/06:30pm 14.7 SSW 1 3 1027.5 - 0.2 - - - - - - -
28/06:00pm 14.9 SSW 3 4 1027.3 - 0.2 - - - - - - -
28/05:30pm 14.8 SSW 4 6 1027.3 - 0.2 - - - - - - -
28/05:00pm 15.4 W 5 7 1027.4 - 0.2 - - - - - - -
28/04:30pm 15.1 SW 3 4 1027.3 - 0.2 - - - - - - -
28/04:00pm 15.4 WSW 7 9 1027.4 - 0.2 - - - - - - -
28/03:30pm 16.8 WNW 8 9 1027.4 - 0.0 - - - - - - -
28/03:00pm 17.6 NW 7 10 1027.4 - 0.0 - - - - - - -
28/02:30pm 18.6 WNW 5 8 1027.7 - 0.0 - - - - - - -
28/02:00pm 17.4 WNW 5 8 1027.9 - 0.0 - - - - - - -
28/01:30pm 17.4 WSW 8 11 1028.2 - 0.0 - - - - - - -
28/01:00pm 18.6 SW 9 11 1028.4 - 0.0 - - - - - - -
28/12:30pm 17.3 WNW 8 13 1028.9 - 0.0 - - - - - - -
28/12:00pm 17.5 NW 7 10 1029.2 - 0.0 - - - - - - -
28/11:30am 16.3 NW 7 10 1029.4 - 0.0 - - - - - - -
28/11:00am 15.6 W 9 13 1029.5 - 0.0 - - - - - - -
28/10:30am 16.2 WNW 8 10 1029.6 - 0.0 - - - - - - -
28/10:00am 15.8 NNW 5 9 1029.6 - 0.0 - - - - - - -
28/09:30am 14.7 NE 5 6 1029.6 - 0.0 - - - - - - -
28/09:00am 13.6 NE 5 6 1029.5 - 2.2 - - - - - - -
28/08:30am 12.6 NNE 5 6 1029.4 - 2.2 - - - - - - -
28/08:00am 12.0 NE 6 7 1029.0 - 2.2 - - - - - - -
28/07:30am 12.0 NE 3 5 1028.7 - 2.2 - - - - - - -
28/07:00am 11.6 SE 4 7 1028.5 - 0.8 - - - - - - -
28/06:30am 10.1 NE 6 7 1028.4 - 0.0 - - - - - - -
28/06:00am 10.7 ENE 3 5 1028.6 - 0.0 - - - - - - -
28/05:30am 9.4 NE 2 4 1028.5 - 0.0 - - - - - - -
28/05:00am 9.2 ENE 4 5 1028.2 - 0.0 - - - - - - -
28/04:30am 8.6 ENE 1 2 1028.2 - 0.0 - - - - - - -
28/04:00am 9.0 ENE 1 4 1028.0 - 0.0 - - - - - - -
28/03:30am 9.8 NE 2 3 1028.1 - 0.0 - - - - - - -
28/03:00am 8.9 NE 1 3 1028.4 - 0.0 - - - - - - -
28/02:30am 9.9 ENE 3 4 1028.5 - 0.0 - - - - - - -
28/02:00am 10.3 NE 3 4 1028.7 - 0.0 - - - - - - -
28/01:30am 10.4 N 1 3 1028.8 - 0.0 - - - - - - -
28/01:00am 12.2 NNE 7 7 1028.4 - 0.0 - - - - - - -
28/12:30am 12.2 NNE 7 8 1028.5 - 0.0 - - - - - - -
28/12:00am 12.6 NE 4 6 1028.7 - 0.0 - - - - - - -
 
Date/Time
CST
Temp
°C
Wind Pressure Rain since
9am
mm
Weather Cloud Vis
km
Sea
Height
m
Swell
Dir  Spd
kts
Gust
kts
hPa Trend Height
m
Period
s
Dir
27/11:30pm 13.9 SW 1 2 1029.0 - 0.0 - - - - - - -
27/11:00pm 14.1 SSW 7 8 1029.3 - 0.0 - - - - - - -
27/10:30pm 14.5 SSW 9 11 1029.3 - 0.0 - - - - - - -
27/10:00pm 14.8 SSW 4 7 1029.2 - 0.0 - - - - - - -
27/09:30pm 14.0 CALM 0 1 1029.1 - 0.0 - - - - - - -
27/09:00pm 14.9 CALM 0 0 1029.0 - 0.0 - - - - - - -
27/08:30pm 14.9 CALM 0 0 1028.9 - 0.0 - - - - - - -
27/08:00pm 15.1 CALM 0 2 1028.8 - 0.0 - - - - - - -
27/07:30pm 15.1 SSE 1 3 1028.8 - 0.0 - - - - - - -
27/07:00pm 15.2 WSW 3 4 1028.6 - 0.0 - - - - - - -
27/06:30pm 15.1 WNW 3 3 1028.4 - 0.0 - - - - - - -
27/06:00pm 15.3 W 4 5 1028.2 - 0.0 - - - - - - -
27/05:30pm 15.5 W 5 7 1028.1 - 0.0 - - - - - - -
27/05:00pm 16.1 SSW 5 7 1028.0 - 0.0 - - - - - - -
27/04:30pm 16.0 WSW 5 8 1027.9 - 0.0 - - - - - - -
27/04:00pm 16.4 WSW 7 9 1028.1 - 0.0 - - - - - - -
27/03:30pm 17.5 WSW 7 9 1028.0 - 0.0 - - - - - - -
27/03:00pm 16.7 WSW 6 8 1027.8 - 0.0 - - - - - - -
27/02:30pm 17.1 SW 6 8 1027.8 - 0.0 - - - - - - -
27/02:00pm 17.0 SW 8 12 1028.0 - 0.0 - - - - - - -
27/01:30pm 17.7 SW 6 7 1028.1 - 0.0 - - - - - - -
27/01:00pm 17.9 SW 6 9 1028.5 - 0.0 - - - - - - -
27/12:30pm 18.2 SW 9 15 1029.1 - 0.0 - - - - - - -
27/12:00pm 16.0 S 4 6 1029.5 - 0.0 - - - - - - -
27/11:30am 16.8 SW 5 9 1029.8 - 0.0 - - - - - - -
27/11:00am 17.1 WSW 4 7 1030.0 - 0.0 - - - - - - -
27/10:30am 15.7 S 5 8 1030.2 - 0.0 - - - - - - -
27/10:00am 15.4 SSW 6 10 1030.4 - 0.0 - - - - - - -
27/09:30am 15.6 SW 9 13 1030.3 - 0.0 - - - - - - -
27/09:00am 14.3 NE 2 3 1030.1 - 0.0 - - - - - - -
27/08:30am 13.6 NE 3 4 1029.7 - 0.0 - - - - - - -
27/08:00am 12.6 ENE 3 4 1029.4 - 0.0 - - - - - - -
27/07:30am 11.9 ENE 4 5 1029.1 - 0.0 - - - - - - -
27/07:00am 12.0 ENE 4 5 1028.8 - 0.0 - - - - - - -
27/06:30am 12.2 NE 5 5 1028.5 - 0.0 - - - - - - -
27/06:00am 12.6 NNE 1 3 1028.3 - 0.0 - - - - - - -
27/05:30am 12.2 NNE 4 5 1028.0 - 0.0 - - - - - - -
27/05:00am 12.1 E 4 5 1028.0 - 0.0 - - - - - - -
27/04:30am 12.0 NE 3 4 1027.8 - 0.0 - - - - - - -
27/04:00am 12.0 ENE 5 6 1027.6 - 0.0 - - - - - - -
27/03:30am 12.0 NNE 4 5 1027.6 - 0.0 - - - - - - -
27/03:00am 11.9 NE 1 2 1027.7 - 0.0 - - - - - - -
27/02:30am 12.2 ENE 4 5 1027.7 - 0.0 - - - - - - -
27/02:00am 12.2 E 4 5 1027.9 - 0.0 - - - - - - -
27/01:30am 12.5 ESE 3 4 1027.8 - 0.0 - - - - - - -
27/01:00am 12.3 ENE 3 4 1027.6 - 0.0 - - - - - - -
27/12:30am 13.2 NE 3 5 1027.5 - 0.0 - - - - - - -
27/12:00am 12.8 ENE 4 4 1027.3 - 0.0 - - - - - - -
 
Date/Time
CST
Temp
°C
Wind Pressure Rain since
9am
mm
Weather Cloud Vis
km
Sea
Height
m
Swell
Dir  Spd
kts
Gust
kts
hPa Trend Height
m
Period
s
Dir
26/11:30pm 12.9 E 3 3 1027.5 - 0.0 - - - - - - -
26/11:00pm 13.1 SE 3 3 1027.6 - 0.0 - - - - - - -
26/10:30pm 13.0 E 4 5 1027.5 - 0.0 - - - - - - -
26/10:00pm 13.5 SSE 4 8 1027.6 - 0.0 - - - - - - -
26/09:30pm 12.8 SSE 3 4 1027.6 - 0.0 - - - - - - -
26/09:00pm 11.7 SE 5 6 1027.4 - 0.0 - - - - - - -
26/08:30pm 11.3 S 6 7 1027.0 - 0.0 - - - - - - -
26/08:00pm 12.1 S 6 8 1026.8 - 0.0 - - - - - - -
26/07:30pm 12.5 S 6 9 1026.4 - 0.0 - - - - - - -
26/07:00pm 13.0 S 7 10 1026.2 - 0.0 - - - - - - -
26/06:30pm 13.9 S 9 13 1026.1 - 0.0 - - - - - - -
26/06:00pm 14.1 S 10 13 1025.9 - 0.0 - - - - - - -
26/05:30pm 14.4 S 10 14 1025.8 - 0.0 - - - - - - -
26/05:00pm 14.6 SSW 11 15 1025.7 - 0.0 - - - - - - -
26/04:30pm 14.9 S 10 15 1025.5 - 0.0 - - - - - - -
26/04:00pm 15.1 S 10 14 1025.3 - 0.0 - - - - - - -
26/03:30pm 15.4 S 10 13 1025.2 - 0.0 - - - - - - -
26/03:00pm 15.9 SSW 12 17 1024.9 - 0.0 - - - - - - -
26/02:30pm 16.5 SSW 11 16 1024.8 - 0.0 - - - - - - -
26/02:00pm 16.4 S 13 17 1025.1 - 0.0 - - - - - - -
26/01:30pm 16.3 S 13 17 1025.3 - 0.0 - - - - - - -
26/01:00pm 17.4 SSW 14 18 1025.4 - 0.0 - - - - - - -
26/12:30pm 16.2 S 13 18 1025.5 - 0.0 - - - - - - -
26/12:00pm 15.4 SSW 13 17 1025.5 - 0.0 - - - - - - -
26/11:30am 15.6 SSW 15 20 1025.3 - 0.0 - - - - - - -
26/11:00am 15.3 S 14 19 1025.1 - 0.0 - - - - - - -
26/10:30am 15.2 S 12 17 1024.9 - 0.0 - - - - - - -
26/10:00am 14.8 S 15 21 1024.8 - 0.0 - - - - - - -
26/09:30am 14.6 S 15 20 1024.6 - 0.0 - - - - - - -
26/09:00am 14.2 S 14 18 1024.1 - 4.2 - - - - - - -
26/08:30am 13.9 S 15 19 1023.7 - 4.2 - - - - - - -
26/08:00am 13.7 S 16 23 1023.3 - 4.2 - - - - - - -
26/07:30am 13.5 SSW 15 21 1022.9 - 4.2 - - - - - - -
26/07:00am 13.6 S 17 23 1022.4 - 4.2 - - - - - - -
26/06:30am 13.7 SSW 17 23 1022.3 - 4.2 - - - - - - -
26/06:00am 13.5 SSW 17 23 1021.8 - 4.2 - - - - - - -
26/05:30am 13.7 S 16 22 1021.5 - 4.2 - - - - - - -
26/05:00am 13.7 SSW 20 26 1020.8 - 4.2 - - - - - - -
26/04:44am 13.9 SSW 17 28 1020.5 - 4.2 - - - - - - -
26/04:30am 13.9 SSW 18 24 1020.3 - 4.2 - - - - - - -
26/04:00am 13.7 SSW 18 24 1020.1 - 4.2 - - - - - - -
26/03:31am 14.2 SSW 18 28 1019.8 - 4.2 - - - - - - -
26/03:30am 14.2 SSW 18 27 1019.8 - 4.2 - - - - - - -
26/03:00am 14.2 SSW 21 29 1019.7 - 4.2 - - - - - - -
26/02:30am 14.5 SSW 15 21 1019.4 - 4.2 - - - - - - -
26/02:00am 14.3 SSW 20 30 1019.3 - 4.2 - - - - - - -
26/01:30am 14.3 SSW 16 23 1019.0 - 4.2 - - - - - - -
26/01:00am 14.1 SSW 18 25 1018.8 - 4.2 - - - - - - -
26/12:30am 14.2 SSW 21 29 1018.5 - 4.2 - - - - - - -
26/12:00am 14.4 SSW 17 22 1018.2 - 4.2 - - - - - - -
 
Date/Time
CST
Temp
°C
Wind Pressure Rain since
9am
mm
Weather Cloud Vis
km
Sea
Height
m
Swell
Dir  Spd
kts
Gust
kts
hPa Trend Height
m
Period
s
Dir
25/11:30pm 13.9 SSW 21 27 1018.1 - 4.2 - - - - - - -
25/11:00pm 14.1 SSW 20 26 1017.7 - 4.2 - - - - - - -
25/10:30pm 14.4 SSW 18 28 1017.5 - 4.2 - - - - - - -
25/10:00pm 13.7 SSW 19 31 1017.2 - 4.2 - - - - - - -

Other Formats:

Comma delimited format used in spreadsheet applications
http://www.bom.gov.au/fwo/IDS60701/IDS60701.94658.axf

JavaScript Object Notation format (JSON) in row-major order
http://www.bom.gov.au/fwo/IDS60701/IDS60701.94658.json